Flight Track Log - Related Links

Times and Time Zones

All times are in EDT time to prevent confusion due to time zone crossing. See the N589H flight status page for this flight to view local times or setup timezone preferences in your user account.

Time Position Orientation Groundspeed Altitude Reporting Facility
EDT Latitude Longitude Course Direction KTS MPH feet Rate Location/Type
08:51AM 27.9333 -82.6833 270° West 150 173 500  Level Tampa TRACON
08:51AM 27.9333 -82.7167 270° West 163 188 1,600 1,813 Climbing Tampa TRACON
08:52AM 27.9333 -82.7667 270° West 190 219 3,400 2,250 Climbing Tampa TRACON
08:53AM 27.8833 -82.7500 164° South 173 199 6,100 2,700 Climbing Tampa TRACON
08:54AM 27.8500 -82.7167 139° Southeast 176 203 8,800 2,255 Climbing Tampa TRACON
08:56AM 27.7669 -82.6831 160° South 192 221 12,000 1,925 Climbing Miami Center
08:57AM 27.7033 -82.6533 158° South 236 272 13,900 2,341 Climbing Miami Center
08:58AM 27.6339 -82.6219 158° South 229 264 16,800 1,512 Climbing Miami Center
08:59AM 27.5806 -82.5656 137° Southeast 265 305 17,000 97 Climbing Miami Center
09:00AM 27.5144 -82.5019 140° Southeast 308 354 17,000  Level Miami Center
09:01AM 27.4453 -82.4353 139° Southeast 325 374 17,000  Level Miami Center
09:02AM 27.3753 -82.3678 139° Southeast 331 381 17,000  Level Miami Center
09:03AM 27.2911 -82.2869 140° Southeast 331 381 17,000  Level Miami Center
09:04AM 27.2206 -82.2192 139° Southeast 336 387 17,000 -49 Level Miami Center
09:05AM 27.1506 -82.1517 139° Southeast 335 386 16,900  Descending Miami Center
09:06AM 27.0797 -82.0853 140° Southeast 335 386 17,000 48 Climbing Miami Center
09:07AM 27.0008 -82.0108 140° Southeast 334 384 17,000  Level Miami Center
09:08AM 26.9244 -81.9381 140° Southeast 334 384 17,000  Level Miami Center
09:09AM 26.8542 -81.8717 140° Southeast 334 384 17,000  Level Miami Center
09:10AM 26.7786 -81.8003 140° Southeast 331 381 17,000  Level Miami Center
09:11AM 26.7092 -81.7342 140° Southeast 331 381 17,000  Level Miami Center
09:12AM 26.6394 -81.6683 140° Southeast 331 381 17,000 -48 Level Miami Center
09:13AM 26.5636 -81.5978 140° Southeast 330 380 16,900 -484 Descending Miami Center
09:14AM 26.4950 -81.5342 140° Southeast 325 374 16,000 -968 Descending Miami Center
09:15AM 26.4214 -81.4650 140° Southeast 323 372 14,900 -968 Descending Miami Center
09:16AM 26.3561 -81.4047 140° Southeast 311 358 14,000 -968 Descending Miami Center
09:17AM 26.2844 -81.3372 140° Southeast 312 359 12,900 -1,024 Descending Miami Center
09:18AM 26.2197 -81.2767 140° Southeast 307 353 11,900 -927 Descending Miami Center
09:20AM 26.1500 -81.2117 140° Southeast 305 351 11,000 -823 Descending Miami Center
09:21AM 26.0864 -81.1531 140° Southeast 304 350 10,200 -897 Descending Miami Center
09:21AM 26.0372 -81.1092 141° Southeast 298 343 9,400 -1,065 Descending Miami Center
09:22AM 26.0192 -81.0914 138° Southeast 294 338 9,100 -980 Descending Miami Center
09:22AM 25.9861 -81.0608 140° Southeast 290 334 8,600 -774 Descending Miami Center
09:23AM 25.9689 -81.0428 137° Southeast 290 334 8,300 -590 Descending Miami Center
09:23AM 25.9289 -81.0072 141° Southeast 286 329 8,000 -290 Descending Miami Center
09:24AM 25.9061 -80.9678 123° Southeast 285 328 8,000  Level Miami Center
09:24AM 25.8917 -80.9369 118° Southeast 265 305 8,000 -484 Level Miami Center
09:25AM 25.8725 -80.8928 116° Southeast 271 312 7,500 -787 Descending Miami Center
09:25AM 25.8569 -80.8622 119° Southeast 280 322 7,200 -871 Descending Miami Center
09:26AM 25.8378 -80.8133 114° Southeast 274 315 6,600 -1,065 Descending Miami Center
09:26AM 25.8228 -80.7786 116° Southeast 279 321 6,100 -968 Descending Miami Center
09:27AM 25.8050 -80.7400 117° Southeast 276 318 5,600 -909 Descending Miami Center
09:27AM 25.7986 -80.7025 101° East 217 250 5,100 -871 Descending Miami Center
09:28AM 25.7981 -80.6739 91° East 214 246 4,700 -968 Descending Miami Center
09:28AM 25.7961 -80.6422 94° East 186 214 4,100 -677 Descending Miami Center
09:29AM 25.7939 -80.6164 95° East 188 216 4,000 -98 Descending Miami Center
09:29AM 25.7919 -80.5792 93° East 191 220 4,000 -97 Level Miami Center
09:30AM 25.7919 -80.5578 90° East 188 216 3,900 -436 Descending Miami Center
09:30AM 25.7931 -80.5283 88° East 184 212 3,600 -677 Descending Miami Center
09:31AM 25.7950 -80.4911 87° East 181 208 3,200 -677 Descending Miami Center
09:31AM 25.7947 -80.4708 91° East 179 206 2,900 -774 Descending Miami Center
09:32AM 25.7967 -80.4322 87° East 188 216 2,400 -727 Descending Miami Center
09:32AM 25.7989 -80.4086 84° East 189 217 2,100 -774 Descending Miami Center
09:33AM 25.8000 -80.3789 88° East 174 200 1,600 -984 Descending Miami Center
09:33AM 25.8000 -80.3578 90° East 158 182 1,100 -1,082 Descending Miami Center
09:34AM 25.8014 -80.3294 87° East 164 189 500 -857 Descending Miami Center
09:34AM 25.8025 -80.3164 85° East 161 185 300 -387 Descending Miami Center
09:35AM 25.8039 -80.2772 88° East 156 180 100 -267 Descending Miami Center
09:37AM 25.7833 -80.2833 222° Southwest  Level FlightAware Approximate

Login

Don't have an account? Register now (free) for customized features, flight alerts, and more!